createdAt,value
2022-10-18T00:00:00.103Z,12.2
2022-10-18T00:05:00.114Z,16.5
2022-10-18T00:10:00.119Z,14.4
2022-10-18T00:15:00.111Z,19.3
2022-10-18T00:20:00.116Z,19.3
2022-10-18T00:25:00.121Z,12.7
2022-10-18T00:30:00.155Z,10.2
2022-10-18T00:35:00.102Z,11.6
2022-10-18T00:40:00.188Z,13
2022-10-18T00:45:00.096Z,15.9
2022-10-18T00:50:00.122Z,15.9
2022-10-18T00:55:00.104Z,16.3
2022-10-18T01:00:00.163Z,13.9
2022-10-18T01:05:00.173Z,12.1
2022-10-18T01:10:00.117Z,8.6
2022-10-18T01:15:00.112Z,11.9
2022-10-18T01:20:00.107Z,11.9
2022-10-18T01:25:00.223Z,14.3
2022-10-18T01:30:00.118Z,11.2
2022-10-18T01:35:00.118Z,18
2022-10-18T01:40:00.137Z,13.7
2022-10-18T01:45:00.118Z,15.8
2022-10-18T01:50:00.132Z,15.8
2022-10-18T01:55:00.117Z,17
2022-10-18T02:00:00.143Z,18.3
2022-10-18T02:05:00.119Z,15.7
2022-10-18T02:10:00.192Z,15.6
2022-10-18T02:15:00.117Z,19.2
2022-10-18T02:20:00.214Z,19.2
2022-10-18T02:25:00.139Z,19.5
2022-10-18T02:30:00.133Z,21.6
2022-10-18T02:35:00.102Z,14.1
2022-10-18T02:40:00.116Z,22.8
2022-10-18T02:45:00.103Z,21.7
2022-10-18T02:50:00.117Z,21.7
2022-10-18T02:55:00.140Z,20.6
2022-10-18T03:00:00.108Z,17
2022-10-18T03:05:00.159Z,17.6
2022-10-18T03:10:00.127Z,16.8
2022-10-18T03:15:00.116Z,20.9
2022-10-18T03:20:00.120Z,20.9
2022-10-18T03:25:00.127Z,18.8
2022-10-18T03:30:00.103Z,17.8
2022-10-18T03:35:00.123Z,17.3
2022-10-18T03:40:00.114Z,18.9
2022-10-18T03:45:00.105Z,14.9
2022-10-18T03:50:00.160Z,14.9
2022-10-18T03:55:00.141Z,16.5
2022-10-18T04:00:00.140Z,17.2
2022-10-18T04:05:00.112Z,20.1
2022-10-18T04:10:00.131Z,17.1
2022-10-18T04:15:00.114Z,14.9
2022-10-18T04:20:00.130Z,14.9
2022-10-18T04:25:00.119Z,21.2
2022-10-18T04:30:00.115Z,20.9
2022-10-18T04:35:00.104Z,20.6
2022-10-18T04:40:00.112Z,20.8
2022-10-18T04:45:00.123Z,27
2022-10-18T04:50:00.167Z,27
2022-10-18T04:55:00.135Z,21
2022-10-18T05:00:00.123Z,23.4
2022-10-18T05:05:00.114Z,19.4
2022-10-18T05:10:00.132Z,24
2022-10-18T05:15:00.106Z,20.9
2022-10-18T05:20:00.259Z,20.9
2022-10-18T05:25:00.120Z,17.4
2022-10-18T05:30:01.435Z,21
2022-10-18T05:35:00.120Z,18.8
2022-10-18T05:40:00.124Z,17
2022-10-18T05:45:00.116Z,18.8
2022-10-18T05:50:00.121Z,18.8
2022-10-18T05:55:00.115Z,19.2
2022-10-18T06:00:00.125Z,19.3
2022-10-18T06:05:00.129Z,19.5
2022-10-18T06:10:00.154Z,19
2022-10-18T06:15:00.122Z,17.5
2022-10-18T06:20:00.119Z,17.5
2022-10-18T06:25:00.132Z,19.9
2022-10-18T06:30:00.146Z,20.2
2022-10-18T06:35:00.111Z,15.7
2022-10-18T06:40:00.130Z,14.6
2022-10-18T06:45:00.119Z,14.2
2022-10-18T06:50:00.127Z,14.2
2022-10-18T06:55:00.123Z,16.4
2022-10-18T07:00:00.110Z,16.2
2022-10-18T07:05:00.111Z,14.4
2022-10-18T07:10:00.109Z,16.7
2022-10-18T07:15:00.124Z,14.3
2022-10-18T07:20:00.126Z,14.3
2022-10-18T07:25:00.155Z,16.5
2022-10-18T07:30:00.109Z,13.9
2022-10-18T07:35:00.216Z,14.3
2022-10-18T07:40:00.133Z,14.8
2022-10-18T07:45:00.102Z,11.7
2022-10-18T07:50:00.137Z,11.7
2022-10-18T07:55:00.146Z,14
2022-10-18T08:00:00.115Z,19.3
2022-10-18T08:05:00.110Z,13.4
2022-10-18T08:10:00.184Z,13.6
2022-10-18T08:15:00.132Z,13.7
2022-10-18T08:20:11.208Z,13.7
2022-10-18T08:25:00.126Z,13.1
2022-10-18T08:30:00.266Z,10.5
2022-10-18T08:35:00.735Z,12.2
2022-10-18T08:40:00.127Z,14.6
2022-10-18T08:45:04.903Z,13.8
2022-10-18T08:50:00.118Z,13.8
2022-10-18T08:55:00.127Z,14.6
2022-10-18T09:00:00.102Z,15.7
2022-10-18T09:05:00.121Z,17.3
2022-10-18T09:10:00.243Z,17.4
2022-10-18T09:15:00.117Z,15.9
2022-10-18T09:25:00.114Z,13.4
2022-10-18T09:30:00.107Z,17
2022-10-18T09:35:00.120Z,16.4
2022-10-18T09:40:00.126Z,18.6
2022-10-18T09:45:00.098Z,15.2
2022-10-18T09:50:00.148Z,15.2
2022-10-18T09:55:00.126Z,18.7
2022-10-18T10:00:00.118Z,13.7
2022-10-18T10:05:00.162Z,14.6
2022-10-18T10:10:00.131Z,14.8
2022-10-18T10:15:00.111Z,12.5
2022-10-18T10:20:00.146Z,12.5
2022-10-18T10:25:00.117Z,13.2
2022-10-18T10:30:02.890Z,14.1
2022-10-18T10:35:00.111Z,16.1
2022-10-18T10:40:17.215Z,15.8
2022-10-18T10:45:00.091Z,20.3
2022-10-18T10:50:00.124Z,20.3
2022-10-18T11:00:00.139Z,19.4
2022-10-18T11:05:00.115Z,14.8
2022-10-18T11:10:00.151Z,16.9
2022-10-18T11:15:00.118Z,14.7
2022-10-18T11:20:00.126Z,14.7
2022-10-18T11:25:00.145Z,19.4
2022-10-18T11:30:00.122Z,19.8
2022-10-18T11:35:00.111Z,18.5
2022-10-18T11:40:00.113Z,16.4
2022-10-18T11:45:00.116Z,13.9
2022-10-18T11:50:00.106Z,13.9
2022-10-18T11:55:00.204Z,19
2022-10-18T12:00:00.103Z,14.3
2022-10-18T12:10:00.146Z,10.8
2022-10-18T12:15:00.117Z,9.2
2022-10-18T12:20:00.123Z,9.2
2022-10-18T12:25:00.131Z,8.4
2022-10-18T12:30:00.111Z,9.1
2022-10-18T12:35:00.103Z,10.6
2022-10-18T12:40:18.716Z,7.5
2022-10-18T12:45:00.128Z,7.9
2022-10-18T12:50:00.125Z,7.9
2022-10-18T12:55:00.112Z,9.5
2022-10-18T13:00:00.128Z,6.2
2022-10-18T13:05:00.250Z,7.8
2022-10-18T13:10:00.131Z,6
2022-10-18T13:15:13.711Z,4.8
2022-10-18T13:20:20.859Z,4.8
2022-10-18T13:25:00.133Z,3.1
2022-10-18T13:30:00.113Z,3.5
2022-10-18T13:35:00.103Z,4.4
2022-10-18T13:40:00.144Z,3.6
2022-10-18T13:45:00.112Z,4.4
2022-10-18T13:50:00.112Z,4.4
2022-10-18T13:55:00.113Z,3.5
2022-10-18T14:00:00.125Z,3.6
2022-10-18T14:05:11.090Z,4.5
2022-10-18T14:10:01.995Z,3.1
2022-10-18T14:15:00.119Z,3.7
2022-10-18T14:20:00.120Z,3.7
2022-10-18T14:25:00.115Z,3.7
2022-10-18T14:30:00.112Z,2.6
2022-10-18T14:35:31.401Z,2.8
2022-10-18T14:40:00.117Z,1.8
2022-10-18T14:45:00.234Z,3
2022-10-18T14:50:00.127Z,3
2022-10-18T14:55:00.127Z,2.2
2022-10-18T15:00:00.136Z,2.2
2022-10-18T15:05:00.107Z,1.9
2022-10-18T15:10:00.115Z,5.5
2022-10-18T15:15:00.109Z,5.5
2022-10-18T15:20:01.760Z,0
2022-10-18T15:25:00.141Z,4.1
2022-10-18T15:30:00.149Z,3.6
2022-10-18T15:35:00.115Z,3.3
2022-10-18T15:40:00.203Z,3.7
2022-10-18T15:45:00.118Z,3.7
2022-10-18T15:50:00.271Z,2.3
2022-10-18T15:55:00.148Z,3.9
2022-10-18T16:00:00.274Z,2.4
2022-10-18T16:05:00.153Z,3.3
2022-10-18T16:10:00.173Z,4.3
2022-10-18T16:15:00.102Z,4.3
2022-10-18T16:20:00.119Z,7.3
2022-10-18T16:25:00.195Z,2.6
2022-10-18T16:30:00.099Z,5.9
2022-10-18T16:35:00.146Z,6
2022-10-18T16:40:00.119Z,7
2022-10-18T16:45:00.115Z,7
2022-10-18T16:50:04.040Z,5.4
2022-10-18T16:55:00.151Z,4.9
2022-10-18T17:00:00.123Z,8.2
2022-10-18T17:05:00.112Z,5.2
2022-10-18T17:10:00.133Z,8.3
2022-10-18T17:15:00.123Z,8.3
2022-10-18T17:20:00.139Z,6.2
2022-10-18T17:25:00.116Z,4.1
2022-10-18T17:30:00.111Z,5.8
2022-10-18T17:35:00.142Z,5.1
2022-10-18T17:40:00.127Z,7.4
2022-10-18T17:45:00.108Z,7.4
2022-10-18T17:50:00.105Z,4.4
2022-10-18T17:55:00.117Z,6.2
2022-10-18T18:00:00.114Z,5.7
2022-10-18T18:05:00.109Z,7.5
2022-10-18T18:10:00.124Z,7.9
2022-10-18T18:15:00.116Z,7.9
2022-10-18T18:20:00.166Z,6.2
2022-10-18T18:25:00.121Z,6.4
2022-10-18T18:30:00.118Z,5.5
2022-10-18T18:35:00.117Z,5.8
2022-10-18T18:40:00.123Z,8.5
2022-10-18T18:45:00.100Z,8.5
2022-10-18T18:50:00.127Z,5.6
2022-10-18T18:55:00.112Z,3.1
2022-10-18T19:00:00.173Z,7.8
2022-10-18T19:05:00.109Z,6.6
2022-10-18T19:10:00.127Z,3.7
2022-10-18T19:15:00.115Z,3.7
2022-10-18T19:20:00.123Z,6.8
2022-10-18T19:25:00.110Z,4.9
2022-10-18T19:30:00.104Z,8.5
2022-10-18T19:35:00.106Z,7
2022-10-18T19:40:00.115Z,8.6
2022-10-18T19:45:00.107Z,8.6
2022-10-18T19:50:00.113Z,8.5
2022-10-18T19:55:00.109Z,6.9
2022-10-18T20:00:00.825Z,6.2
2022-10-18T20:05:00.116Z,6.7
2022-10-18T20:10:00.155Z,5.9
2022-10-18T20:15:00.113Z,5.9
2022-10-18T20:20:00.126Z,4.3
2022-10-18T20:25:00.121Z,9.5
2022-10-18T20:30:00.143Z,9.2
2022-10-18T20:35:00.125Z,7
2022-10-18T20:40:00.128Z,7.3
2022-10-18T20:45:00.202Z,7.3
2022-10-18T20:50:00.139Z,5
2022-10-18T20:55:00.123Z,7.7
2022-10-18T21:00:00.107Z,8
2022-10-18T21:05:00.120Z,8.1
2022-10-18T21:10:00.152Z,3.2
2022-10-18T21:15:00.099Z,3.2
2022-10-18T21:20:00.126Z,7.1
2022-10-18T21:25:00.108Z,7.3
2022-10-18T21:30:00.202Z,9.5
2022-10-18T21:35:00.091Z,10.2
2022-10-18T21:40:00.149Z,7.8
2022-10-18T21:45:00.093Z,7.8
2022-10-18T21:50:00.111Z,7.8
2022-10-18T21:55:00.102Z,5.5
2022-10-18T22:00:00.112Z,4.8
2022-10-18T22:05:00.094Z,5.7
2022-10-18T22:10:00.113Z,4.7
2022-10-18T22:15:00.097Z,4.7
2022-10-18T22:20:00.115Z,7.5
2022-10-18T22:25:00.131Z,5.2
2022-10-18T22:30:00.107Z,8.7
2022-10-18T22:35:00.103Z,7.2
2022-10-18T22:40:00.128Z,6.5
2022-10-18T22:45:00.113Z,6.5
2022-10-18T22:50:00.120Z,5.4
2022-10-18T22:55:00.115Z,6.6
2022-10-18T23:00:00.117Z,13
2022-10-18T23:05:00.119Z,9.1
2022-10-18T23:10:00.141Z,9.1
2022-10-18T23:15:00.106Z,9.1
2022-10-18T23:20:00.114Z,4.7
2022-10-18T23:25:00.110Z,7.5
2022-10-18T23:30:00.106Z,6.5
2022-10-18T23:35:00.103Z,5.1
2022-10-18T23:40:00.116Z,5.9
2022-10-18T23:45:00.120Z,5.9
2022-10-18T23:50:00.110Z,8.5
2022-10-18T23:55:00.136Z,9
